Terminal Aerodrome Forecast
Issued by NWS Quad Cities IA IL

Home | Current Version | Previous Version | Text Only | Print | Product List | Glossary On
Versions: 1 2 3 4 5 6 7 8 9 10 11 12 13 14 15 16 17 18 19 20 21 22
000
FTUS43 KDVN 242333
TAFMLI
TAF
KMLI 242333Z 2500/2524 10012KT P6SM OVC050
      TEMPO 2500/2502 4SM -SHRA OVC035
     FM250300 10012KT P6SM SCT025 OVC035
     FM250600 11012KT 6SM BR VCSH OVC020
     FM251100 09015G22KT 2SM RA BR SCT008 OVC012
     FM251800 06014G21KT 6SM BR VCSH OVC020=

USA.gov is the U.S. government's official web portal to all federal, state and local government web resources and services.